createdAt,value
2017-08-01T00:00:03.597Z,59.75
2017-08-01T00:01:03.579Z,59.85
2017-08-01T00:02:03.559Z,60.04
2017-08-01T00:03:03.539Z,59.75
2017-08-01T00:04:03.522Z,59.75
2017-08-01T00:05:03.509Z,60.62
2017-08-01T00:06:03.486Z,60.33
2017-08-01T00:07:03.477Z,60.62
2017-08-01T00:08:03.500Z,60.42
2017-08-01T00:09:03.432Z,60.52
2017-08-01T00:10:03.414Z,61.39
2017-08-01T00:11:03.286Z,61.19
2017-08-01T00:12:03.083Z,61.97
2017-08-01T00:13:03.357Z,62.16
2017-08-01T00:14:03.340Z,62.64
2017-08-01T00:15:03.025Z,63.12
2017-08-01T00:16:03.006Z,63.31
2017-08-01T00:17:02.987Z,63.28
2017-08-01T00:18:02.975Z,63.86
2017-08-01T00:19:02.952Z,64.25
2017-08-01T00:20:03.231Z,63.95
2017-08-01T00:21:03.213Z,63.86
2017-08-01T00:22:03.196Z,64.34
2017-08-01T00:23:03.172Z,64.63
2017-08-01T00:24:03.158Z,64.43
2017-08-01T00:25:03.134Z,65.3
2017-08-01T00:26:03.120Z,65.2
2017-08-01T00:27:02.804Z,64.89
2017-08-01T00:28:02.782Z,65.17
2017-08-01T00:29:03.066Z,65.37
2017-08-01T00:30:02.746Z,65.37
2017-08-01T00:31:02.727Z,65.75
2017-08-01T00:32:03.005Z,65.84
2017-08-01T00:33:02.690Z,66.33
2017-08-01T00:34:02.970Z,66.14
2017-08-01T00:35:02.652Z,66.04
2017-08-01T00:36:02.932Z,66.33
2017-08-01T00:37:02.615Z,66.23
2017-08-01T00:38:02.619Z,66.04
2017-08-01T00:39:02.871Z,66.61
2017-08-01T00:40:02.558Z,66.42
2017-08-01T00:41:02.837Z,66.61
2017-08-01T00:42:02.817Z,66.42
2017-08-01T00:43:02.501Z,66.42
2017-08-01T00:44:02.781Z,66.42
2017-08-01T00:45:02.755Z,66.33
2017-08-01T00:46:02.743Z,66.52
2017-08-01T00:47:02.721Z,66.81
2017-08-01T00:48:02.700Z,66.42
2017-08-01T00:49:02.386Z,67.1
2017-08-01T00:50:02.662Z,66.81
2017-08-01T00:51:02.643Z,67.1
2017-08-01T00:52:02.626Z,66.91
2017-08-01T00:53:02.608Z,66.91
2017-08-01T00:54:02.592Z,66.91
2017-08-01T00:55:02.580Z,67.45
2017-08-01T00:56:02.551Z,67.25
2017-08-01T00:57:02.534Z,67.16
2017-08-01T00:58:02.509Z,67.07
2017-08-01T00:59:02.491Z,67.35
2017-08-01T01:00:02.472Z,67.35
2017-08-01T01:01:02.458Z,66.97
2017-08-01T01:02:02.434Z,67.07
2017-08-01T01:03:02.426Z,67.07
2017-08-01T01:04:02.104Z,67.16
2017-08-01T01:05:02.377Z,67.07
2017-08-01T01:06:02.361Z,67.16
2017-08-01T01:07:02.341Z,67.25
2017-08-01T01:08:02.322Z,67.35
2017-08-01T01:09:02.300Z,67.07
2017-08-01T01:10:02.283Z,67.35
2017-08-01T01:11:02.277Z,66.97
2017-08-01T01:12:02.244Z,66.97
2017-08-01T01:13:02.226Z,66.97
2017-08-01T01:14:01.911Z,66.97
2017-08-01T01:15:02.185Z,67.45
2017-08-01T01:16:02.171Z,67.35
2017-08-01T01:17:02.151Z,67.25
2017-08-01T01:18:02.128Z,67.07
2017-08-01T01:19:02.112Z,67.35
2017-08-01T01:20:02.091Z,67.45
2017-08-01T01:21:02.138Z,67.35
2017-08-01T01:22:02.055Z,67.45
2017-08-01T01:23:02.035Z,67.93
2017-08-01T01:24:02.015Z,67.93
2017-08-01T01:25:01.999Z,67.74
2017-08-01T01:26:01.975Z,68.02
2017-08-01T01:27:01.958Z,67.93
2017-08-01T01:28:01.940Z,67.74
2017-08-01T01:29:01.920Z,67.74
2017-08-01T01:30:01.900Z,67.93
2017-08-01T01:31:01.880Z,67.74
2017-08-01T01:32:01.860Z,67.74
2017-08-01T01:33:01.845Z,67.64
2017-08-01T01:34:01.823Z,67.64
2017-08-01T01:35:01.805Z,67.54
2017-08-01T01:36:01.788Z,67.64
2017-08-01T01:37:01.765Z,67.29
2017-08-01T01:38:01.748Z,67.48
2017-08-01T01:39:01.732Z,67.86
2017-08-01T01:40:01.711Z,67.74
2017-08-01T01:41:01.689Z,67.74
2017-08-01T01:42:01.669Z,68.12
2017-08-01T01:43:01.657Z,67.83
2017-08-01T01:44:01.633Z,67.74
2017-08-01T01:45:01.613Z,67.83
2017-08-01T01:46:01.592Z,67.86
2017-08-01T01:47:01.574Z,67.45
2017-08-01T01:48:01.555Z,67.54
2017-08-01T01:49:01.537Z,67.93
2017-08-01T01:50:01.515Z,67.45
2017-08-01T01:51:01.499Z,67.38
2017-08-01T01:52:01.479Z,67.58
2017-08-01T01:53:01.462Z,67.74
2017-08-01T01:54:01.440Z,67.77
2017-08-01T01:55:01.427Z,67.68
2017-08-01T01:56:01.402Z,67.77
2017-08-01T01:57:01.387Z,67.77
2017-08-01T01:58:01.366Z,67.77
2017-08-01T01:59:01.346Z,67.96
2017-08-01T02:00:01.331Z,67.96
2017-08-01T02:01:01.307Z,67.96
2017-08-01T02:02:01.292Z,67.96
2017-08-01T02:03:01.273Z,67.77
2017-08-01T02:04:01.276Z,67.68
2017-08-01T02:05:01.234Z,67.68
2017-08-01T02:06:01.214Z,67.77
2017-08-01T02:07:01.197Z,67.68
2017-08-01T02:08:01.181Z,67.96
2017-08-01T02:09:00.862Z,67.77
2017-08-01T02:10:01.141Z,67.77
2017-08-01T02:11:01.145Z,67.68
2017-08-01T02:12:01.101Z,67.68
2017-08-01T02:13:01.087Z,67.77
2017-08-01T02:14:01.066Z,67.48
2017-08-01T02:15:01.047Z,67.58
2017-08-01T02:16:01.029Z,67.68
2017-08-01T02:17:01.007Z,67.58
2017-08-01T02:18:00.989Z,68.06
2017-08-01T02:19:00.972Z,67.86
2017-08-01T02:20:00.950Z,67.86
2017-08-01T02:21:00.933Z,68.06
2017-08-01T02:22:00.920Z,68.15
2017-08-01T02:23:00.893Z,68.25
2017-08-01T02:24:00.876Z,68.35
2017-08-01T02:25:00.858Z,68.15
2017-08-01T02:26:00.837Z,68.35
2017-08-01T02:27:00.822Z,68.54
2017-08-01T02:28:00.803Z,68.63
2017-08-01T02:29:00.784Z,69.02
2017-08-01T02:30:00.776Z,68.92
2017-08-01T02:31:00.748Z,68.83
2017-08-01T02:32:00.726Z,69.12
2017-08-01T02:33:00.732Z,69.5
2017-08-01T02:34:00.690Z,69.5
2017-08-01T02:35:00.675Z,69.6
2017-08-01T02:36:00.652Z,69.98
2017-08-01T02:37:00.631Z,69.89
2017-08-01T02:38:00.621Z,69.89
2017-08-01T02:39:00.598Z,70.43
2017-08-01T02:40:00.281Z,70.14
2017-08-01T02:41:00.557Z,70.14
2017-08-01T02:42:00.541Z,70.27
2017-08-01T02:43:00.518Z,70.43
2017-08-01T02:44:00.504Z,70.52
2017-08-01T02:45:00.483Z,70.9
2017-08-01T02:46:00.464Z,71.1
2017-08-01T02:47:00.447Z,70.9
2017-08-01T02:48:00.429Z,71
2017-08-01T02:49:00.410Z,71.1
2017-08-01T02:50:00.392Z,71.1
2017-08-01T02:51:00.367Z,71.29
2017-08-01T02:52:00.354Z,71.29
2017-08-01T02:53:00.331Z,71.39
2017-08-01T02:54:00.313Z,71.1
2017-08-01T02:55:00.293Z,71.39
2017-08-01T02:56:00.274Z,71.39
2017-08-01T02:57:00.256Z,71.1
2017-08-01T02:58:00.246Z,71.29
2017-08-01T02:59:00.219Z,71.77
2017-08-01T03:00:00.199Z,71.67
2017-08-01T03:01:00.182Z,71.87
2017-08-01T03:02:00.164Z,72.06
2017-08-01T03:02:59.897Z,72.54
2017-08-01T03:04:00.124Z,72.44
2017-08-01T03:05:00.111Z,72.41
2017-08-01T03:06:00.085Z,72.64
2017-08-01T03:07:00.067Z,72.22
2017-08-01T03:08:00.045Z,72.92
2017-08-01T03:09:00.026Z,73.08
2017-08-01T03:09:59.710Z,73.56
2017-08-01T03:10:59.990Z,73.18
2017-08-01T03:11:59.971Z,73.18
2017-08-01T03:12:59.950Z,73.46
2017-08-01T03:13:59.929Z,73.56
2017-08-01T03:14:59.912Z,72.99
2017-08-01T03:15:59.893Z,73.08
2017-08-01T03:16:59.875Z,73.56
2017-08-01T03:17:59.860Z,73.18
2017-08-01T03:18:59.838Z,73.56
2017-08-01T03:19:59.816Z,73.66
2017-08-01T03:20:59.794Z,73.75
2017-08-01T03:21:59.780Z,73.85
2017-08-01T03:22:59.758Z,73.75
2017-08-01T03:23:59.743Z,74.04
2017-08-01T03:24:59.724Z,73.94
2017-08-01T03:25:59.701Z,74.04
2017-08-01T03:26:59.384Z,73.85
2017-08-01T03:27:59.661Z,73.85
2017-08-01T03:28:59.642Z,74.04
2017-08-01T03:29:59.619Z,74.04
2017-08-01T03:30:59.605Z,73.85
2017-08-01T03:31:59.584Z,73.85
2017-08-01T03:32:59.563Z,73.75
2017-08-01T03:33:59.559Z,73.94
2017-08-01T03:34:59.525Z,73.94
2017-08-01T03:35:59.208Z,73.85
2017-08-01T03:36:59.491Z,73.94
2017-08-01T03:37:59.169Z,73.94
2017-08-01T03:38:59.448Z,73.75
2017-08-01T03:39:59.432Z,73.94
2017-08-01T03:40:59.410Z,73.69
2017-08-01T03:41:59.390Z,73.56
2017-08-01T03:42:59.373Z,73.6
2017-08-01T03:43:59.358Z,73.94
2017-08-01T03:44:59.329Z,73.6
2017-08-01T03:45:59.313Z,73.88
2017-08-01T03:46:59.293Z,73.88
2017-08-01T03:47:59.275Z,73.69
2017-08-01T03:48:59.253Z,73.79
2017-08-01T03:49:59.230Z,73.88
2017-08-01T03:50:59.212Z,74.08
2017-08-01T03:51:59.193Z,73.88
2017-08-01T03:52:59.173Z,74.08
2017-08-01T03:53:59.155Z,73.88
2017-08-01T03:54:59.157Z,73.98
2017-08-01T03:55:59.118Z,73.88
2017-08-01T03:56:59.096Z,73.88
2017-08-01T03:57:59.078Z,74.17
2017-08-01T03:58:59.059Z,73.79
2017-08-01T03:59:59.050Z,74.46
2017-08-01T04:00:59.019Z,74.27
2017-08-01T04:01:59.003Z,74.17
2017-08-01T04:02:58.981Z,74.75
2017-08-01T04:03:58.961Z,74.55
2017-08-01T04:04:58.944Z,74.46
2017-08-01T04:05:58.927Z,74.37
2017-08-01T04:06:58.908Z,74.65
2017-08-01T04:07:58.885Z,74.85
2017-08-01T04:08:58.867Z,74.75
2017-08-01T04:09:58.846Z,75.32
2017-08-01T04:10:58.826Z,75.23
2017-08-01T04:11:58.810Z,75.13
2017-08-01T04:12:58.799Z,75.32
2017-08-01T04:13:58.772Z,75.32
2017-08-01T04:14:58.752Z,75.62
2017-08-01T04:15:58.730Z,75.32
2017-08-01T04:16:58.753Z,76
2017-08-01T04:17:58.692Z,75.71
2017-08-01T04:18:58.673Z,76
2017-08-01T04:19:58.669Z,76.09
2017-08-01T04:20:58.638Z,76.09
2017-08-01T04:21:58.618Z,76
2017-08-01T04:22:58.598Z,76.29
2017-08-01T04:23:58.578Z,76.19
2017-08-01T04:24:58.561Z,76.19
2017-08-01T04:25:58.541Z,76.19
2017-08-01T04:26:58.225Z,76.09
2017-08-01T04:27:58.502Z,76.09
2017-08-01T04:28:58.483Z,76.29
2017-08-01T04:29:58.467Z,76.29
2017-08-01T04:30:58.556Z,76.09
2017-08-01T04:31:58.130Z,75.71
2017-08-01T04:32:58.417Z,76
2017-08-01T04:33:58.389Z,76.19
2017-08-01T04:34:58.374Z,76.29
2017-08-01T04:35:58.356Z,76.19
2017-08-01T04:36:58.338Z,76.23
2017-08-01T04:37:58.020Z,76.14
2017-08-01T04:38:58.000Z,76.23
2017-08-01T04:39:58.281Z,76.14
2017-08-01T04:40:57.963Z,76.04
2017-08-01T04:41:58.242Z,76.04
2017-08-01T04:42:58.224Z,76.14
2017-08-01T04:43:57.907Z,76.32
2017-08-01T04:44:57.890Z,76.14
2017-08-01T04:45:58.170Z,76.32
2017-08-01T04:46:58.149Z,76.14
2017-08-01T04:47:58.130Z,76.42
2017-08-01T04:48:58.111Z,76.23
2017-08-01T04:49:58.094Z,76.52
2017-08-01T04:50:58.074Z,76.32
2017-08-01T04:51:58.056Z,76.14
2017-08-01T04:52:58.043Z,76.14
2017-08-01T04:53:58.020Z,76.42
2017-08-01T04:54:58.006Z,76.32
2017-08-01T04:55:57.990Z,76.14
2017-08-01T04:56:57.968Z,76.52
2017-08-01T04:57:57.656Z,76.61
2017-08-01T04:58:57.929Z,76.61
2017-08-01T04:59:57.915Z,76.71
2017-08-01T05:00:57.898Z,76.9
2017-08-01T05:01:57.579Z,77.19
2017-08-01T05:02:57.857Z,77.09
2017-08-01T05:03:57.839Z,76.71
2017-08-01T05:04:57.820Z,77.63
2017-08-01T05:05:57.808Z,77.25
2017-08-01T05:06:57.786Z,77.63
2017-08-01T05:07:57.767Z,77.73
2017-08-01T05:08:57.747Z,78.21
2017-08-01T05:09:57.730Z,78.3
2017-08-01T05:10:57.850Z,78.02
2017-08-01T05:11:57.695Z,78.02
2017-08-01T05:12:57.674Z,78.21
2017-08-01T05:13:57.660Z,77.63
2017-08-01T05:14:57.641Z,77.73
2017-08-01T05:15:57.622Z,77.63
2017-08-01T05:16:57.601Z,77.25
2017-08-01T05:17:57.287Z,77.73
2017-08-01T05:18:57.568Z,77.38
2017-08-01T05:19:57.250Z,77.38
2017-08-01T05:20:57.528Z,77
2017-08-01T05:21:57.510Z,77.09
2017-08-01T05:22:57.494Z,76.9
2017-08-01T05:23:57.180Z,76.81
2017-08-01T05:24:57.456Z,76.9
2017-08-01T05:25:57.437Z,76.9
2017-08-01T05:26:57.423Z,76.81
2017-08-01T05:27:57.401Z,77.19
2017-08-01T05:28:57.387Z,76.71
2017-08-01T05:29:57.388Z,76.81
2017-08-01T05:30:57.349Z,77
2017-08-01T05:31:57.330Z,76.52
2017-08-01T05:32:57.315Z,76.42
2017-08-01T05:33:57.295Z,76.71
2017-08-01T05:34:57.275Z,76.61
2017-08-01T05:35:57.257Z,76.32
2017-08-01T05:36:57.241Z,76.32
2017-08-01T05:37:57.224Z,76.23
2017-08-01T05:38:57.207Z,76.36
2017-08-01T05:39:57.186Z,76.36
2017-08-01T05:40:57.166Z,76.23
2017-08-01T05:41:57.160Z,76.23
2017-08-01T05:42:57.134Z,75.88
2017-08-01T05:43:56.819Z,75.88
2017-08-01T05:44:57.096Z,76.17
2017-08-01T05:45:57.079Z,76.26
2017-08-01T05:46:57.064Z,76.07
2017-08-01T05:47:57.043Z,75.79
2017-08-01T05:48:57.033Z,75.69
2017-08-01T05:49:57.011Z,76.36
2017-08-01T05:50:56.991Z,76.26
2017-08-01T05:51:56.977Z,76.36
2017-08-01T05:52:56.956Z,76.17
2017-08-01T05:53:56.940Z,75.98
2017-08-01T05:54:56.918Z,76.36
2017-08-01T05:55:56.911Z,76.36
2017-08-01T05:56:56.887Z,76.36
2017-08-01T05:57:56.872Z,76.07
2017-08-01T05:58:56.851Z,76.07
2017-08-01T05:59:56.836Z,76.4
2017-08-01T06:00:56.732Z,76.01
2017-08-01T06:01:56.504Z,75.73
2017-08-01T06:02:56.781Z,75.54
2017-08-01T06:03:56.765Z,75.24
2017-08-01T06:04:56.750Z,74.86
2017-08-01T06:05:56.733Z,75.44
2017-08-01T06:06:56.717Z,75.05
2017-08-01T06:07:56.696Z,75.63
2017-08-01T06:08:56.681Z,75.44
2017-08-01T06:09:56.663Z,75.54
2017-08-01T06:10:56.649Z,75.24
2017-08-01T06:11:56.635Z,75.63
2017-08-01T06:12:56.612Z,75.44
2017-08-01T06:13:56.603Z,75.54
2017-08-01T06:14:56.288Z,75.57
2017-08-01T06:15:56.565Z,75.09
2017-08-01T06:16:56.555Z,75.28
2017-08-01T06:17:56.535Z,74.71
2017-08-01T06:18:56.516Z,74.71
2017-08-01T06:19:56.500Z,74.16
2017-08-01T06:20:56.486Z,74.45
2017-08-01T06:21:56.494Z,73.97
2017-08-01T06:22:56.452Z,73.78
2017-08-01T06:23:56.440Z,73.1
2017-08-01T06:24:56.424Z,73.24
2017-08-01T06:25:56.409Z,73.43
2017-08-01T06:26:56.395Z,73.24
2017-08-01T06:27:56.377Z,73.14
2017-08-01T06:28:56.361Z,73.05
2017-08-01T06:29:56.351Z,73.82
2017-08-01T06:30:56.337Z,73.72
2017-08-01T06:31:56.388Z,73.53
2017-08-01T06:32:56.306Z,73.24
2017-08-01T06:33:56.289Z,73.33
2017-08-01T06:34:56.273Z,73.14
2017-08-01T06:35:56.260Z,72.85
2017-08-01T06:36:56.242Z,72.47
2017-08-01T06:37:56.229Z,72.66
2017-08-01T06:38:56.214Z,72.37
2017-08-01T06:39:56.198Z,72.27
2017-08-01T06:40:55.901Z,72.02
2017-08-01T06:41:56.170Z,71.54
2017-08-01T06:42:56.157Z,71.64
2017-08-01T06:43:56.143Z,71.34
2017-08-01T06:44:56.128Z,71.25
2017-08-01T06:45:56.118Z,71.34
2017-08-01T06:46:56.102Z,71.15
2017-08-01T06:47:56.084Z,71.64
2017-08-01T06:48:56.075Z,71.54
2017-08-01T06:49:56.061Z,71.25
2017-08-01T06:50:56.043Z,70.96
2017-08-01T06:51:56.033Z,71.25
2017-08-01T06:52:56.015Z,70.8
2017-08-01T06:53:56.008Z,70.61
2017-08-01T06:54:55.989Z,70.32
2017-08-01T06:55:55.975Z,70.03
2017-08-01T06:56:55.962Z,69.74
2017-08-01T06:57:55.947Z,69.07
2017-08-01T06:58:55.940Z,69.26
2017-08-01T06:59:55.925Z,68.59
2017-08-01T07:00:55.905Z,69
2017-08-01T07:01:55.899Z,68.71
2017-08-01T07:02:55.883Z,68.33
2017-08-01T07:03:55.865Z,67.94
2017-08-01T07:04:55.857Z,67.85
2017-08-01T07:05:55.637Z,67.55
2017-08-01T07:06:55.830Z,67.07
2017-08-01T07:07:56.252Z,67.65
2017-08-01T07:08:55.696Z,66.78
2017-08-01T07:09:55.796Z,66.69
2017-08-01T07:10:55.773Z,66.59
2017-08-01T07:11:55.792Z,66.88
2017-08-01T07:12:55.748Z,66.2
2017-08-01T07:13:55.735Z,66.4
2017-08-01T07:14:55.722Z,66.69
2017-08-01T07:15:55.713Z,66.2
2017-08-01T07:16:55.747Z,66.3
2017-08-01T07:17:55.785Z,66.4
2017-08-01T07:18:55.662Z,66.4
2017-08-01T07:19:55.920Z,66.11
2017-08-01T07:20:55.644Z,65.82
2017-08-01T07:21:55.637Z,66.11
2017-08-01T07:22:55.345Z,65.53
2017-08-01T07:23:55.637Z,65.53
2017-08-01T07:24:55.592Z,65.56
2017-08-01T07:25:55.582Z,64.69
2017-08-01T07:26:55.571Z,64.79
2017-08-01T07:27:55.554Z,64.01
2017-08-01T07:28:55.545Z,64.01
2017-08-01T07:29:55.530Z,64.34
2017-08-01T07:30:55.518Z,64.24
2017-08-01T07:31:55.503Z,64.05
2017-08-01T07:32:55.502Z,64.24
2017-08-01T07:33:55.482Z,64.14
2017-08-01T07:34:55.492Z,64.24
2017-08-01T07:35:55.464Z,64.05
2017-08-01T07:36:55.447Z,64.05
2017-08-01T07:37:55.433Z,64.34
2017-08-01T07:38:55.420Z,64.92
2017-08-01T07:39:55.410Z,64.72
2017-08-01T07:40:55.394Z,64.63
2017-08-01T07:41:55.382Z,64.63
2017-08-01T07:42:55.378Z,64.82
2017-08-01T07:43:55.354Z,64.82
2017-08-01T07:44:55.342Z,64.43
2017-08-01T07:45:55.333Z,64.53
2017-08-01T07:46:55.316Z,64.63
2017-08-01T07:47:55.304Z,64.63
2017-08-01T07:48:55.299Z,64.05
2017-08-01T07:49:55.612Z,64.14
2017-08-01T07:50:55.267Z,64.34
2017-08-01T07:51:55.261Z,64.34
2017-08-01T07:52:55.243Z,64.34
2017-08-01T07:53:55.229Z,64.82
2017-08-01T07:54:55.328Z,65.3
2017-08-01T07:55:55.354Z,65.3
2017-08-01T07:56:55.518Z,65.01
2017-08-01T07:57:55.136Z,65.78
2017-08-01T07:58:55.352Z,65.69
2017-08-01T07:59:55.150Z,65.59
2017-08-01T08:00:54.857Z,66.08
2017-08-01T08:01:55.323Z,65.88
2017-08-01T08:02:55.402Z,66.36
2017-08-01T08:03:55.026Z,66.27
2017-08-01T08:04:55.092Z,66.36
2017-08-01T08:05:55.079Z,66.75
2017-08-01T08:06:55.058Z,67.04
2017-08-01T08:07:55.046Z,67.88
2017-08-01T08:08:55.038Z,67.43
2017-08-01T08:09:55.022Z,67.49
2017-08-01T08:10:55.007Z,67.91
2017-08-01T08:11:54.995Z,67.91
2017-08-01T08:12:54.982Z,67.2
2017-08-01T08:13:54.969Z,67.11
2017-08-01T08:14:54.954Z,67.11
2017-08-01T08:15:54.953Z,66.91
2017-08-01T08:16:54.931Z,66.33
2017-08-01T08:17:54.750Z,66.24
2017-08-01T08:18:54.905Z,66.53
2017-08-01T08:19:55.436Z,66.14
2017-08-01T08:20:55.376Z,65.95
2017-08-01T08:21:54.922Z,65.82
2017-08-01T08:22:54.805Z,66.2
2017-08-01T08:23:55.242Z,66.53
2017-08-01T08:24:55.027Z,66.2
2017-08-01T08:25:54.812Z,66.3
2017-08-01T08:26:54.793Z,66.2
2017-08-01T08:27:54.782Z,66.3
2017-08-01T08:28:54.817Z,66.11
2017-08-01T08:29:54.802Z,66.01
2017-08-01T08:30:54.743Z,65.56
2017-08-01T08:31:54.429Z,65.66
2017-08-01T08:32:54.712Z,65.66
2017-08-01T08:33:54.701Z,65.17
2017-08-01T08:34:54.393Z,65.37
2017-08-01T08:35:54.671Z,65.82
2017-08-01T08:36:54.661Z,65.72
2017-08-01T08:37:54.693Z,65.72
2017-08-01T08:38:54.630Z,65.43
2017-08-01T08:39:54.617Z,65.37
2017-08-01T08:40:54.602Z,65.17
2017-08-01T08:41:54.588Z,65.17
2017-08-01T08:42:54.576Z,65.95
2017-08-01T08:43:54.566Z,65.56
2017-08-01T08:44:54.551Z,65.56
2017-08-01T08:45:54.535Z,65.75
2017-08-01T08:46:54.534Z,65.69
2017-08-01T08:47:54.507Z,65.78
2017-08-01T08:48:54.495Z,65.78
2017-08-01T08:49:54.482Z,66.08
2017-08-01T08:50:54.467Z,66.36
2017-08-01T08:51:54.453Z,66.27
2017-08-01T08:52:54.453Z,66.27
2017-08-01T08:53:54.426Z,66.27
2017-08-01T08:54:54.415Z,65.78
2017-08-01T08:55:54.402Z,66.3
2017-08-01T08:56:54.390Z,66.11
2017-08-01T08:57:54.376Z,66.2
2017-08-01T08:58:54.372Z,66.78
2017-08-01T08:59:54.347Z,66.69
2017-08-01T09:00:54.342Z,67.14
2017-08-01T09:01:54.028Z,67.24
2017-08-01T09:02:54.357Z,67.33
2017-08-01T09:03:54.022Z,67.72
2017-08-01T09:04:54.052Z,67.82
2017-08-01T09:05:54.279Z,67.88
2017-08-01T09:06:54.392Z,68.65
2017-08-01T09:07:54.245Z,68.75
2017-08-01T09:08:54.234Z,68.75
2017-08-01T09:09:54.220Z,68.75
2017-08-01T09:10:54.203Z,69.32
2017-08-01T09:11:54.192Z,69.13
2017-08-01T09:12:54.178Z,70
2017-08-01T09:13:54.171Z,70
2017-08-01T09:14:54.151Z,70.68
2017-08-01T09:15:54.136Z,71.06
2017-08-01T09:16:54.122Z,71.64
2017-08-01T09:17:54.106Z,71.84
2017-08-01T09:18:54.091Z,72.22
2017-08-01T09:19:54.078Z,72.22
2017-08-01T09:20:53.770Z,72.32
2017-08-01T09:21:54.050Z,72.86
2017-08-01T09:22:54.037Z,72.8
2017-08-01T09:23:54.022Z,72.52
2017-08-01T09:24:54.011Z,72.96
2017-08-01T09:25:54.001Z,72.9
2017-08-01T09:26:53.982Z,72.32
2017-08-01T09:27:53.965Z,72.52
2017-08-01T09:28:53.957Z,72.61
2017-08-01T09:29:53.941Z,72.03
2017-08-01T09:30:53.925Z,72.13
2017-08-01T09:31:53.908Z,72.13
2017-08-01T09:32:53.898Z,71.97
2017-08-01T09:33:53.883Z,71.68
2017-08-01T09:34:53.572Z,71.58
2017-08-01T09:35:53.852Z,71.78
2017-08-01T09:36:53.838Z,71.39
2017-08-01T09:37:53.830Z,71.68
2017-08-01T09:38:53.811Z,71.39
2017-08-01T09:39:53.803Z,71.48
2017-08-01T09:40:53.486Z,71.2
2017-08-01T09:41:53.776Z,71.58
2017-08-01T09:42:53.762Z,71.58
2017-08-01T09:43:53.740Z,71.48
2017-08-01T09:44:53.730Z,71.58
2017-08-01T09:45:53.768Z,71.2
2017-08-01T09:46:53.699Z,71.3
2017-08-01T09:47:53.687Z,71.2
2017-08-01T09:48:53.675Z,70.81
2017-08-01T09:49:53.669Z,70.52
2017-08-01T09:50:53.646Z,70.81
2017-08-01T09:51:53.335Z,69.94
2017-08-01T09:52:53.322Z,69.56
2017-08-01T09:53:53.604Z,69.17
2017-08-01T09:54:53.590Z,69.01
2017-08-01T09:55:53.584Z,68.62
2017-08-01T09:56:53.568Z,67.94
2017-08-01T09:57:53.555Z,67.49
2017-08-01T09:58:53.242Z,67.21
2017-08-01T09:59:53.527Z,66.91
2017-08-01T10:00:53.520Z,66.33
2017-08-01T10:01:53.211Z,65.66
2017-08-01T10:02:53.491Z,65.56
2017-08-01T10:03:53.503Z,65.47
2017-08-01T10:04:53.478Z,64.59
2017-08-01T10:05:53.456Z,63.92
2017-08-01T10:06:53.441Z,64.4
2017-08-01T10:07:53.427Z,64.21
2017-08-01T10:08:53.421Z,63.82
2017-08-01T10:09:53.115Z,63.82
2017-08-01T10:10:53.777Z,63.24
2017-08-01T10:11:53.936Z,62.3
2017-08-01T10:12:53.842Z,60.98
2017-08-01T10:13:53.083Z,59.84
2017-08-01T10:14:53.904Z,58.59
2017-08-01T10:15:53.337Z,57.29
2017-08-01T10:16:53.323Z,56.74
2017-08-01T10:17:53.017Z,55.96
2017-08-01T10:18:53.405Z,55.11
2017-08-01T10:19:53.005Z,53.13
2017-08-01T10:20:53.035Z,51.33
2017-08-01T10:21:52.983Z,49.44
2017-08-01T10:22:53.276Z,48.02
2017-08-01T10:23:53.264Z,46.59
2017-08-01T10:24:53.258Z,47
2017-08-01T10:25:53.284Z,45.92
2017-08-01T10:26:52.952Z,45.56
2017-08-01T10:27:52.937Z,44.9
2017-08-01T10:28:53.229Z,45.39
2017-08-01T10:29:53.224Z,45.56
2017-08-01T10:30:53.218Z,47
2017-08-01T10:31:52.911Z,47.75
2017-08-01T10:32:52.909Z,48.78
2017-08-01T10:33:53.198Z,49.41
2017-08-01T10:34:53.192Z,50.16
2017-08-01T10:35:52.890Z,51.28
2017-08-01T10:36:53.178Z,51.75
2017-08-01T10:37:53.176Z,52.69
2017-08-01T10:38:53.167Z,53.53
2017-08-01T10:39:53.157Z,53.51
2017-08-01T10:40:53.149Z,54.28
2017-08-01T10:41:53.146Z,54.55
2017-08-01T10:42:53.135Z,54.64
2017-08-01T10:43:53.127Z,54.64
2017-08-01T10:44:53.122Z,54.74
2017-08-01T10:45:53.109Z,55.22
2017-08-01T10:46:53.100Z,55.32
2017-08-01T10:47:53.089Z,55.52
2017-08-01T10:48:52.800Z,55.88
2017-08-01T10:49:53.073Z,56.16
2017-08-01T10:50:53.114Z,56.65
2017-08-01T10:51:53.056Z,57.2
2017-08-01T10:52:53.078Z,57.11
2017-08-01T10:53:53.101Z,56.92
2017-08-01T10:54:53.026Z,57.01
2017-08-01T10:55:53.062Z,57.01
2017-08-01T10:56:53.030Z,56.92
2017-08-01T10:57:52.994Z,56.52
2017-08-01T10:58:52.982Z,56.56
2017-08-01T10:59:52.975Z,56.36
2017-08-01T11:00:53.014Z,56.07
2017-08-01T11:01:52.950Z,56.46
2017-08-01T11:02:52.942Z,56.07
2017-08-01T11:03:52.931Z,56.14
2017-08-01T11:04:52.925Z,56.92
2017-08-01T11:05:52.908Z,56.94
2017-08-01T11:06:52.904Z,56.43
2017-08-01T11:07:52.887Z,56.62
2017-08-01T11:08:52.874Z,56.72
2017-08-01T11:09:52.869Z,56.85
2017-08-01T11:10:52.854Z,55.85
2017-08-01T11:11:52.843Z,55.68
2017-08-01T11:12:52.834Z,55.98
2017-08-01T11:13:52.821Z,56
2017-08-01T11:14:52.845Z,55.98
2017-08-01T11:15:52.808Z,56.07
2017-08-01T11:16:52.791Z,56.26
2017-08-01T11:17:52.779Z,56.36
2017-08-01T11:18:52.773Z,56.56
2017-08-01T11:19:52.763Z,56.65
2017-08-01T11:20:52.747Z,56.75
2017-08-01T11:21:52.739Z,56.46
2017-08-01T11:22:52.728Z,55.98
2017-08-01T11:23:52.718Z,56.2
2017-08-01T11:24:52.706Z,55.98
2017-08-01T11:25:52.693Z,55.58
2017-08-01T11:26:52.688Z,55.4
2017-08-01T11:27:52.678Z,55.3
2017-08-01T11:28:52.667Z,55.1
2017-08-01T11:29:52.652Z,55.56
2017-08-01T11:30:52.643Z,55.17
2017-08-01T11:31:52.634Z,55.56
2017-08-01T11:32:52.623Z,54.98
2017-08-01T11:33:52.610Z,55.27
2017-08-01T11:34:52.654Z,55.07
2017-08-01T11:35:52.595Z,55.36
2017-08-01T11:36:52.581Z,55.17
2017-08-01T11:37:52.571Z,55.46
2017-08-01T11:38:52.560Z,56.24
2017-08-01T11:39:52.549Z,56.24
2017-08-01T11:40:52.537Z,55.76
2017-08-01T11:41:52.530Z,56.24
2017-08-01T11:42:52.521Z,56.52
2017-08-01T11:43:52.506Z,57.3
2017-08-01T11:44:52.501Z,56.92
2017-08-01T11:45:52.489Z,57.3
2017-08-01T11:46:52.560Z,57.88
2017-08-01T11:47:52.468Z,57.95
2017-08-01T11:48:52.476Z,58.04
2017-08-01T11:49:52.498Z,58.92
2017-08-01T11:50:52.132Z,59.5
2017-08-01T11:51:52.415Z,59.56
2017-08-01T11:52:52.407Z,60.05
2017-08-01T11:53:52.390Z,60.44
2017-08-01T11:54:52.376Z,60.24
2017-08-01T11:55:52.370Z,60.24
2017-08-01T11:56:52.365Z,60.08
2017-08-01T11:57:52.342Z,60.47
2017-08-01T11:58:52.329Z,59.79
2017-08-01T11:59:52.320Z,59.98
2017-08-01T12:00:52.307Z,59.69
2017-08-01T12:01:52.294Z,60.05
2017-08-01T12:02:52.282Z,60.14
2017-08-01T12:03:52.277Z,60.05
2017-08-01T12:04:52.260Z,59.86
2017-08-01T12:05:52.414Z,59.86
2017-08-01T12:06:53.231Z,60.05
2017-08-01T12:07:52.279Z,60.21
2017-08-01T12:08:52.212Z,59.76
2017-08-01T12:09:52.195Z,59.83
2017-08-01T12:10:52.182Z,59.92
2017-08-01T12:11:52.204Z,60.11
2017-08-01T12:12:52.170Z,59.95
2017-08-01T12:13:52.142Z,60.05
2017-08-01T12:14:52.131Z,60.14
2017-08-01T12:15:52.124Z,60.05
2017-08-01T12:16:52.107Z,59.56
2017-08-01T12:17:52.096Z,59.21
2017-08-01T12:18:52.085Z,59.59
2017-08-01T12:19:52.069Z,59.21
2017-08-01T12:20:52.060Z,59.01
2017-08-01T12:21:52.045Z,59.05
2017-08-01T12:22:52.035Z,58.47
2017-08-01T12:23:52.024Z,58.17
2017-08-01T12:24:52.011Z,57.98
2017-08-01T12:25:52.003Z,58.17
2017-08-01T12:26:51.758Z,57.69
2017-08-01T12:27:51.853Z,57.59
2017-08-01T12:28:52.119Z,57.59
2017-08-01T12:29:51.955Z,57.01
2017-08-01T12:30:51.945Z,56.62
2017-08-01T12:31:51.932Z,56.82
2017-08-01T12:32:51.920Z,57.01
2017-08-01T12:33:51.908Z,57.01
2017-08-01T12:34:51.895Z,57.11
2017-08-01T12:35:51.885Z,56.5
2017-08-01T12:36:51.875Z,56.92
2017-08-01T12:37:51.867Z,56.5
2017-08-01T12:38:51.849Z,56.6
2017-08-01T12:39:51.840Z,56.52
2017-08-01T12:40:51.829Z,56.62
2017-08-01T12:41:51.818Z,56.82
2017-08-01T12:42:51.804Z,56.24
2017-08-01T12:43:51.795Z,56.16
2017-08-01T12:44:51.785Z,56.24
2017-08-01T12:45:51.776Z,56.52
2017-08-01T12:46:51.472Z,56.46
2017-08-01T12:47:51.750Z,56.34
2017-08-01T12:48:51.740Z,56.26
2017-08-01T12:49:51.729Z,57.01
2017-08-01T12:50:51.718Z,56.62
2017-08-01T12:51:51.707Z,56.72
2017-08-01T12:52:51.700Z,57.01
2017-08-01T12:53:51.687Z,55.98
2017-08-01T12:54:51.675Z,56.16